Aeroporto :
LOGIN :

Iscrizione | Disclaimer

   EN    FR    IT 

 










Sommario :    VFR   VFR Marginale   IFR   IFR Intensivo   IFR Molto Intensivo
Visibilità : 
Base nubi : 
>= 8 km
>= 3000ft
5 / 8 km
1000 / 3000 ft
1500m / 5 km
500 / 1000 ft
800 / 1500m
200 / 500 ft
< 800m
< 200 ft
Simboli :   Temporali  Nebbia  Neve Forte  Precipitazioni Forti  Vento > 20 kt
SIGMETs :   Varie  Temporali  Ghiacco  Turbolenza  Onda orograficha  Ceneri Vulcaniche







- Altitudine del aeroporto : 184 ft
- Codice IATA : BRU


EBBR - Bruxelles

ULTIMO METAR :
  • 222150Z 31002KT CAVOK 16/12 Q1026 NOSIG

METARs OBSOLETI :
  • 222120Z 30002KT CAVOK 16/13 Q1026 NOSIG
  • 222050Z 31003KT CAVOK 17/13 Q1026 NOSIG
  • 222020Z 31004KT CAVOK 18/12 Q1026 NOSIG
  • 221950Z 31005KT CAVOK 19/13 Q1026 NOSIG
  • 221920Z 34004KT CAVOK 19/11 Q1026 NOSIG

TAF TAF EBBR
Valido dal 22 a 18 ore il 24 a 00 ore UTC


221706Z 2218/2324 32003KT CAVOK
Nessun NOTAM noto per questo aeroporto.



MetMap, La meteo Aeronautica in un colpo d'occhio ! - Copyright ORBIFLY Dicembre 2007 - Disclaimer

ORBIFLY MET'MAP TEAM :

Programmazione e sviluppo : Alexandra Zaïnal
Concezione e sviluppo : Baudouin d'Aumeries
Co-Programmazione e sviluppo : Marc-Olivier Méhu
Supporto tecnico e logistico : Manuel Goepfert
Aiuto per la traduzione : Arnaldo La Scala

Contatto : metmap@orbifly.com




FONTI E CREDITI :

   NOAA